BOJ weather

Burgas Airport
Burgas, Burgas Province, Bulgaria

Public forecast

Using degrees Celsius for public forecast. Weather courtesy of forecast.io.

METAR (pilot weather report)

Retrieved 2018/12/18 15:30 UTC (0 seconds ago):

LBBG 181530Z 01013KT 9999 -RA BKN038 OVC046 01/M02 Q1023 NOSIG

TAF (pilot weather forecast)

Retrieved 2018/12/18 12:18 UTC (3 hours ago):

TAF TAF LBBG 181100Z 1812/1912 36020KT 8000 SCT015 OVC030 TEMPO 1812/1815 RA SCT008 OVC020 TEMPO 1815/1820 01020G30KT 3000 SNRA BKN010 OVC020 BECMG 1820/1822 3000 -SN BKN008 OVC015 TEMPO 1902/1908 1200 SN OVC008